createdAt,value
2024-03-26T00:04:20.283Z,81.4
2024-03-26T00:09:20.311Z,81.6
2024-03-26T00:15:01.753Z,83.3
2024-03-26T00:20:01.802Z,84
2024-03-26T00:31:01.767Z,86.4
2024-03-26T00:36:01.777Z,87.9
2024-03-26T00:41:20.544Z,86.8
2024-03-26T00:47:01.755Z,86
2024-03-26T00:52:20.293Z,88
2024-03-26T00:58:01.750Z,87.4
2024-03-26T01:03:01.763Z,87.7
2024-03-26T01:08:20.283Z,86.6
2024-03-26T01:24:01.792Z,88.7
2024-03-26T01:29:17.555Z,86.9
2024-03-26T01:34:20.290Z,87.3
2024-03-26T01:40:01.754Z,86.3
2024-03-26T01:45:20.272Z,86.7
2024-03-26T01:51:01.755Z,86.7
2024-03-26T01:56:20.294Z,85.9
2024-03-26T02:02:01.780Z,85.3
2024-03-26T02:12:20.363Z,85.7
2024-03-26T02:18:01.772Z,85.1
2024-03-26T02:23:20.277Z,84.5
2024-03-26T02:28:20.281Z,86.2
2024-03-26T02:39:01.760Z,85.8
2024-03-26T02:44:20.286Z,86.4
2024-03-26T02:49:20.286Z,85.9
2024-03-26T02:55:01.781Z,85.9
2024-03-26T03:00:20.285Z,87.2
2024-03-26T03:06:01.801Z,87.5
2024-03-26T03:11:20.293Z,87.4
2024-03-26T03:17:01.767Z,87.4
2024-03-26T03:22:20.270Z,87.8
2024-03-26T03:27:20.294Z,88.8
2024-03-26T03:33:01.757Z,87.3
2024-03-26T03:38:20.291Z,86
2024-03-26T03:48:20.300Z,86
2024-03-26T03:54:01.781Z,86.7
2024-03-26T03:59:20.285Z,85.6
2024-03-26T04:10:01.761Z,85.8
2024-03-26T04:15:01.823Z,85.8
2024-03-26T04:20:20.288Z,86.3
2024-03-26T04:26:01.761Z,85.8
2024-03-26T04:37:01.750Z,87.1
2024-03-26T04:42:01.750Z,87.3
2024-03-26T04:47:20.274Z,86.5
2024-03-26T04:52:20.285Z,86.7
2024-03-26T04:58:01.760Z,86.6
2024-03-26T05:03:20.349Z,88.6
2024-03-26T05:14:20.299Z,88.3
2024-03-26T05:20:01.753Z,89.1
2024-03-26T05:25:01.766Z,89.1
2024-03-26T05:30:20.278Z,87.8
2024-03-26T05:36:01.759Z,88.1
2024-03-26T05:41:01.758Z,90.6
2024-03-26T05:46:20.281Z,91.9
2024-03-26T05:52:01.749Z,92.9
2024-03-26T05:57:20.273Z,92.5
2024-03-26T06:02:20.290Z,92.6
2024-03-26T06:08:01.757Z,93.4
2024-03-26T06:19:01.742Z,94.2
2024-03-26T06:24:01.745Z,93.6
2024-03-26T06:29:01.747Z,94.2
2024-03-26T06:39:01.760Z,93.6
2024-03-26T06:44:20.277Z,95.1
2024-03-26T06:49:20.298Z,93.1
2024-03-26T06:55:01.763Z,92.5
2024-03-26T07:00:01.832Z,92
2024-03-26T07:05:20.305Z,92.8
2024-03-26T07:11:01.757Z,93.1
2024-03-26T07:16:20.286Z,92.5
2024-03-26T07:22:01.819Z,91.1
2024-03-26T07:27:20.291Z,91.1
2024-03-26T07:32:20.302Z,91.1
2024-03-26T07:43:06.443Z,88.5
2024-03-26T07:48:22.256Z,85.4
2024-03-26T07:54:01.757Z,87
2024-03-26T07:59:01.774Z,86.7
2024-03-26T08:04:20.275Z,86.1
2024-03-26T08:10:01.813Z,91.4
2024-03-26T08:15:01.765Z,99.9
2024-03-26T08:20:01.834Z,100
2024-03-26T08:25:20.285Z,100
2024-03-26T08:30:20.330Z,100
2024-03-26T08:36:01.877Z,100
2024-03-26T08:41:20.284Z,100
2024-03-26T08:47:01.773Z,100
2024-03-26T08:52:01.741Z,97.8
2024-03-26T08:57:01.819Z,100
2024-03-26T09:02:20.289Z,99.2
2024-03-26T09:08:01.750Z,100
2024-03-26T09:13:01.816Z,99.5
2024-03-26T09:18:20.314Z,95.1
2024-03-26T09:24:02.128Z,95
2024-03-26T09:29:02.084Z,93.5
2024-03-26T09:34:20.273Z,90.8
2024-03-26T09:40:01.744Z,92.8
2024-03-26T09:45:05.852Z,88
2024-03-26T09:50:20.271Z,82.3
2024-03-26T09:55:20.289Z,82.5
2024-03-26T10:00:20.310Z,82.8
2024-03-26T10:06:01.788Z,81.6
2024-03-26T10:11:20.281Z,76.7
2024-03-26T10:16:20.265Z,77
2024-03-26T10:21:20.275Z,72.6
2024-03-26T10:27:01.790Z,73.3
2024-03-26T10:32:01.745Z,72.6
2024-03-26T10:37:20.263Z,69.7
2024-03-26T10:42:20.268Z,69.3
2024-03-26T10:47:20.273Z,68.8
2024-03-26T10:52:20.280Z,66.8
2024-03-26T10:58:01.751Z,65.3
2024-03-26T11:03:01.759Z,66
2024-03-26T11:08:01.765Z,68.7
2024-03-26T11:18:20.271Z,69.1
2024-03-26T11:23:20.353Z,70.7
2024-03-26T11:28:20.298Z,68.1
2024-03-26T11:39:20.304Z,70.2
2024-03-26T11:45:01.839Z,70
2024-03-26T11:50:20.277Z,67.5
2024-03-26T11:56:01.782Z,67.4
2024-03-26T12:07:01.766Z,69.1
2024-03-26T12:12:20.291Z,65
2024-03-26T12:17:20.296Z,65
2024-03-26T12:23:01.757Z,63.5
2024-03-26T12:28:01.767Z,62.3
2024-03-26T12:33:20.280Z,65.3
2024-03-26T12:38:20.281Z,64.5
2024-03-26T12:43:20.284Z,64.9
2024-03-26T12:49:01.758Z,60.6
2024-03-26T12:54:01.800Z,60.6
2024-03-26T12:59:20.271Z,60.9
2024-03-26T13:04:20.295Z,62.7
2024-03-26T13:10:01.767Z,60
2024-03-26T13:15:20.557Z,60.5
2024-03-26T13:20:20.286Z,57.8
2024-03-26T13:26:01.756Z,54.4
2024-03-26T13:36:20.307Z,54.5
2024-03-26T13:41:20.299Z,51.1
2024-03-26T13:47:01.759Z,51.9
2024-03-26T13:52:01.871Z,54.4
2024-03-26T13:57:01.768Z,52.7
2024-03-26T14:02:20.280Z,52.8
2024-03-26T14:07:20.302Z,53.8
2024-03-26T14:13:01.780Z,53.4
2024-03-26T14:18:01.784Z,54.8
2024-03-26T14:23:20.301Z,55
2024-03-26T14:28:20.303Z,55.6
2024-03-26T14:39:01.771Z,54.8
2024-03-26T14:44:01.775Z,54.1
2024-03-26T14:49:01.785Z,54.4
2024-03-26T14:59:20.309Z,55.9
2024-03-26T15:04:20.329Z,57.2
2024-03-26T15:10:01.779Z,56.2
2024-03-26T15:15:01.804Z,53.9
2024-03-26T15:20:20.305Z,53.3
2024-03-26T15:26:01.757Z,56.7
2024-03-26T15:31:01.779Z,55.3
2024-03-26T15:36:01.781Z,55.8
2024-03-26T15:41:20.315Z,55.8
2024-03-26T15:46:20.329Z,57
2024-03-26T15:52:11.817Z,59.2
2024-03-26T15:57:20.302Z,58.3
2024-03-26T16:02:20.319Z,56.4
2024-03-26T16:08:01.789Z,54.6
2024-03-26T16:13:01.789Z,57.4
2024-03-26T16:18:20.320Z,56.1
2024-03-26T16:23:20.313Z,57.4
2024-03-26T16:34:01.819Z,56.7
2024-03-26T16:39:20.355Z,56.1
2024-03-26T16:45:03.293Z,59.5
2024-03-26T16:50:01.817Z,57.2
2024-03-26T16:55:20.323Z,57.2
2024-03-26T17:01:01.863Z,55.1
2024-03-26T17:06:20.339Z,56.3
2024-03-26T17:12:01.929Z,56.2
2024-03-26T17:17:20.336Z,56.8
2024-03-26T17:23:01.813Z,56.6
2024-03-26T17:28:20.341Z,56.1
2024-03-26T17:39:20.327Z,55.4
2024-03-26T20:11:38.903Z,63.3
2024-03-26T20:17:01.840Z,64.1
2024-03-26T20:22:01.876Z,65.2
2024-03-26T20:27:20.386Z,66.4
2024-03-26T20:32:20.354Z,64.2
2024-03-26T20:37:20.366Z,65
2024-03-26T20:43:01.840Z,64
2024-03-26T20:48:01.944Z,64.4
2024-03-26T20:53:20.402Z,66.3
2024-03-26T20:58:20.376Z,69.4
2024-03-26T21:04:01.877Z,67.2
2024-03-26T21:09:20.356Z,69.5
2024-03-26T21:14:20.364Z,72.6
2024-03-26T21:19:20.365Z,75.4
2024-03-26T21:24:20.437Z,76.8
2024-03-26T21:30:01.840Z,77.4
2024-03-26T21:35:20.388Z,77.8
2024-03-26T21:41:04.271Z,76.5
2024-03-26T21:46:02.142Z,74.6
2024-03-26T21:51:20.404Z,72.7
2024-03-26T22:01:20.376Z,72.9
2024-03-26T22:06:20.390Z,73.3
2024-03-26T22:12:01.912Z,73.3
2024-03-26T22:17:20.364Z,73.2
2024-03-26T22:22:20.345Z,72.6
2024-03-26T22:27:20.377Z,72.1
2024-03-26T22:32:20.377Z,72.5
2024-03-26T22:38:01.855Z,73.2
2024-03-26T22:43:01.916Z,73.5
2024-03-26T22:48:20.389Z,74
2024-03-26T22:53:20.373Z,72.2
2024-03-26T22:58:20.394Z,74.6
2024-03-26T23:04:01.851Z,73.2
2024-03-26T23:09:01.843Z,73.7
2024-03-26T23:14:20.390Z,74.2
2024-03-26T23:20:01.905Z,76.7
2024-03-26T23:25:20.367Z,74
2024-03-26T23:36:01.890Z,73.4
2024-03-26T23:41:20.382Z,73
2024-03-26T23:47:01.880Z,73
2024-03-26T23:52:20.475Z,72.9
2024-03-26T23:57:20.381Z,72.5
